Time;durP1;ratioP1;P1;durP2;ratioP2;P2;SDS_P1;SDS_P2;PMS_P1;PMS_P2;Temp;Humidity;BMP_temperature;BMP_pressure;BME280_temperature;BME280_humidity;BME280_pressure;Samples;Min_cycle;Max_cycle;Signal;HPM_P1;HPM_P2
2022/01/21 00:01:11;;;;;;;;;1.00;1.00;;;;;3.26;80.62;103315.47;5046009;28;11051;-69
2022/01/21 00:03:39;;;;;;;;;1.50;1.50;;;;;3.26;81.46;103312.78;5046788;28;11217;-69
2022/01/21 00:06:06;;;;;;;;;0.00;0.00;;;;;3.26;82.18;103318.16;5047860;28;11158;-69
2022/01/21 00:08:38;;;;;;;;;0.50;0.50;;;;;3.26;82.84;103321.69;5024676;28;11156;-68
2022/01/21 00:11:07;;;;;;;;;1.00;0.00;;;;;3.23;83.20;103326.34;5046414;28;11162;-69
2022/01/21 00:13:35;;;;;;;;;0.00;0.00;;;;;3.29;84.23;103318.84;5043628;28;11094;-68
2022/01/21 00:16:02;;;;;;;;;3.50;1.00;;;;;3.32;84.35;103328.53;5047101;28;11290;-69
2022/01/21 00:18:29;;;;;;;;;1.00;1.00;;;;;3.32;85.04;103326.72;5046958;28;11041;-69
2022/01/21 00:30:15;;;;;;;;;1.00;1.00;;;;;3.26;86.64;103327.03;5047970;28;11017;-68
2022/01/21 00:32:09;;;;;;;;;0.00;0.00;;;;;3.33;87.25;103317.75;5036801;28;11170;-69
2022/01/21 00:34:36;;;;;;;;;0.00;0.00;;;;;3.33;87.39;103323.09;5029387;28;10953;-69
2022/01/21 00:37:03;;;;;;;;;1.75;0.50;;;;;3.33;87.35;103327.59;5047897;28;11019;-69
2022/01/21 00:39:32;;;;;;;;;0.00;0.00;;;;;3.33;87.39;103325.78;5047163;28;11289;-68
2022/01/21 00:44:37;;;;;;;;;0.00;0.00;;;;;3.32;87.72;103339.25;5027583;28;11021;-69
2022/01/21 00:47:04;;;;;;;;;0.00;0.00;;;;;3.36;88.26;103349.69;5044603;28;10949;-69
2022/01/21 00:49:31;;;;;;;;;1.00;1.00;;;;;3.34;88.06;103342.69;5047322;28;10953;-69
2022/01/21 00:51:57;;;;;;;;;0.00;0.00;;;;;3.32;88.14;103357.97;5047413;28;11786;-68
2022/01/21 00:54:25;;;;;;;;;0.50;0.00;;;;;3.31;88.09;103361.59;5045378;28;11056;-69
2022/01/21 00:56:51;;;;;;;;;0.00;0.00;;;;;3.27;88.29;103354.69;5046656;28;11041;-69
2022/01/21 00:59:18;;;;;;;;;0.00;0.00;;;;;3.27;88.32;103343.97;5046841;28;10961;-69
2022/01/21 01:01:44;;;;;;;;;0.25;0.00;;;;;3.30;88.32;103344.66;5044244;28;11193;-68
2022/01/21 01:04:11;;;;;;;;;0.00;0.00;;;;;3.29;88.54;103344.75;5034718;28;10963;-69
2022/01/21 01:06:38;;;;;;;;;0.00;0.00;;;;;3.26;88.43;103345.78;5029245;28;10949;-68
2022/01/21 01:09:05;;;;;;;;;0.00;0.00;;;;;3.25;88.53;103336.03;5045681;28;11431;-68
2022/01/21 01:19:58;;;;;;;;;1.75;1.00;;;;;3.23;86.75;103334.38;5046615;28;10972;-69
2022/01/21 01:22:38;;;;;;;;;0.00;0.00;;;;;3.23;86.42;103332.56;5045212;28;11214;-68
2022/01/21 01:27:51;;;;;;;;;1.00;1.00;;;;;3.20;85.87;103339.84;5043921;28;10981;-69
2022/01/21 01:30:22;;;;;;;;;0.00;0.00;;;;;3.19;85.90;103332.78;5029816;28;11141;-68
2022/01/21 01:32:50;;;;;;;;;0.00;0.00;;;;;3.22;85.49;103337.97;5046920;28;11882;-69
2022/01/21 01:35:20;;;;;;;;;0.00;0.00;;;;;3.26;85.58;103329.72;5011613;28;10813;-69
2022/01/21 01:40:44;;;;;;;;;1.75;1.00;;;;;3.26;85.28;103343.09;5047290;28;11067;-69
2022/01/21 01:51:18;;;;;;;;;0.00;0.00;;;;;3.24;85.25;103334.28;5045674;28;11127;-68
2022/01/21 01:54:00;;;;;;;;;1.00;0.00;;;;;3.23;85.83;103342.41;5028154;28;10952;-68
2022/01/21 01:56:31;;;;;;;;;0.50;0.00;;;;;3.21;85.91;103345.13;5044865;28;11206;-69
2022/01/21 01:58:57;;;;;;;;;1.00;0.00;;;;;3.21;86.12;103347.81;5035810;28;11137;-69
2022/01/21 02:01:24;;;;;;;;;0.00;0.00;;;;;3.21;86.35;103349.63;5047158;28;10949;-69
2022/01/21 02:03:50;;;;;;;;;0.75;0.00;;;;;3.21;86.50;103338.91;5044092;28;11053;-68
2022/01/21 02:06:18;;;;;;;;;0.00;0.00;;;;;3.17;86.45;103330.19;5045311;28;11049;-68
2022/01/21 02:08:45;;;;;;;;;0.00;0.00;;;;;3.17;86.44;103340.03;5044342;28;11144;-69
2022/01/21 02:11:11;;;;;;;;;0.00;0.00;;;;;3.18;86.90;103337.25;5044864;28;11246;-69
2022/01/21 02:13:48;;;;;;;;;0.25;0.00;;;;;3.18;86.90;103339.06;5024642;28;11087;-68
2022/01/21 02:21:41;;;;;;;;;0.00;0.00;;;;;3.16;87.22;103333.81;5046102;28;11045;-68
2022/01/21 02:24:11;;;;;;;;;0.00;0.00;;;;;3.18;87.11;103341.75;5043605;28;11043;-69
2022/01/21 02:26:38;;;;;;;;;0.00;0.00;;;;;3.16;87.14;103336.47;5045872;28;11719;-69
2022/01/21 02:29:06;;;;;;;;;0.00;0.00;;;;;3.19;87.52;103336.31;5042945;28;11076;-69
2022/01/21 02:31:34;;;;;;;;;0.00;0.00;;;;;3.20;87.23;103329.16;5028579;28;11093;-69
2022/01/21 02:34:02;;;;;;;;;0.00;0.00;;;;;3.20;87.24;103324.66;5028942;28;11140;-69
2022/01/21 02:36:28;;;;;;;;;0.00;0.00;;;;;3.23;87.08;103329.03;5032490;28;11099;-70
2022/01/21 02:38:55;;;;;;;;;0.75;0.00;;;;;3.27;87.06;103323.41;5031523;28;11089;-68
2022/01/21 02:41:22;;;;;;;;;0.00;0.00;;;;;3.30;86.64;103331.28;5038572;28;11072;-69
2022/01/21 02:43:50;;;;;;;;;0.00;0.00;;;;;3.32;86.77;103340.09;5032876;28;11054;-69
2022/01/21 02:46:18;;;;;;;;;0.00;0.00;;;;;3.37;86.46;103329.16;5047965;28;11008;-69
2022/01/21 02:48:45;;;;;;;;;0.00;0.00;;;;;3.34;85.80;103332.00;5044127;28;11908;-69
2022/01/21 02:51:13;;;;;;;;;0.00;0.00;;;;;3.30;85.73;103322.41;5048574;28;11099;-69
2022/01/21 02:56:19;;;;;;;;;1.00;0.00;;;;;3.28;85.71;103313.56;5032169;28;10950;-69
2022/01/21 02:58:46;;;;;;;;;0.00;0.00;;;;;3.23;85.57;103324.53;5030791;28;11118;-68
2022/01/21 03:01:14;;;;;;;;;0.00;0.00;;;;;3.22;85.60;103325.47;5031461;28;11066;-69
2022/01/21 03:03:43;;;;;;;;;0.00;0.00;;;;;3.26;85.74;103334.22;5031090;28;11012;-69
2022/01/21 03:06:16;;;;;;;;;0.00;0.00;;;;;3.26;85.87;103328.84;5048279;28;11027;-69
2022/01/21 03:08:45;;;;;;;;;0.00;0.00;;;;;3.25;85.98;103329.81;5046548;28;11084;-69
2022/01/21 03:11:12;;;;;;;;;0.00;0.00;;;;;3.24;86.29;103336.97;5049998;28;10974;-69
2022/01/21 03:13:42;;;;;;;;;1.50;0.00;;;;;3.20;86.61;103339.84;5049722;28;10950;-69
2022/01/21 03:16:10;;;;;;;;;0.75;0.00;;;;;3.29;87.60;103339.41;5049723;28;11046;-69
2022/01/21 03:18:37;;;;;;;;;0.00;0.00;;;;;3.24;88.55;103328.06;5032543;28;11058;-69
2022/01/21 03:21:04;;;;;;;;;0.75;0.00;;;;;3.28;89.43;103324.28;5030569;28;10962;-69
2022/01/21 03:23:31;;;;;;;;;0.00;0.00;;;;;3.28;90.33;103335.84;5037145;28;10884;-69
2022/01/21 03:25:57;;;;;;;;;0.00;0.00;;;;;3.28;90.78;103338.53;5026690;28;11073;-69
2022/01/21 03:28:41;;;;;;;;;0.00;0.00;;;;;3.19;91.06;103344.34;5039430;28;10953;-69
2022/01/21 03:31:07;;;;;;;;;0.00;0.00;;;;;3.14;91.64;103342.88;5047905;28;10937;-68
2022/01/21 03:33:35;;;;;;;;;0.75;0.00;;;;;3.13;92.13;103347.34;5046151;28;11023;-69
2022/01/21 03:36:03;;;;;;;;;0.00;0.00;;;;;3.17;92.39;103348.91;5063946;28;11109;-69
2022/01/21 03:38:29;;;;;;;;;0.00;0.00;;;;;3.14;92.61;103345.53;5011737;28;11139;-69
2022/01/21 03:40:56;;;;;;;;;0.00;0.00;;;;;3.13;92.67;103343.81;5045439;28;11212;-69
2022/01/21 03:43:24;;;;;;;;;1.50;0.25;;;;;3.17;92.76;103340.88;5025712;28;14817;-69
2022/01/21 03:45:52;;;;;;;;;0.00;0.00;;;;;3.13;92.60;103346.50;5029643;28;11126;-69
2022/01/21 03:48:21;;;;;;;;;0.00;0.00;;;;;3.11;92.51;103333.19;5023630;28;10936;-69
2022/01/21 03:50:49;;;;;;;;;1.00;0.00;;;;;3.05;92.87;103334.38;5024722;28;11113;-69
2022/01/21 03:53:16;;;;;;;;;0.00;0.00;;;;;3.03;92.85;103325.56;5032235;28;11088;-69
2022/01/21 03:55:45;;;;;;;;;0.00;0.00;;;;;3.06;93.16;103340.59;5022495;28;11899;-69
2022/01/21 03:58:13;;;;;;;;;0.00;0.00;;;;;3.04;92.81;103345.16;5045958;28;11257;-69
2022/01/21 04:00:48;;;;;;;;;0.00;0.00;;;;;3.00;93.02;103344.44;5031157;28;11110;-68
2022/01/21 04:03:15;;;;;;;;;0.75;0.00;;;;;2.96;92.88;103336.63;5045919;28;11108;-69
2022/01/21 04:05:43;;;;;;;;;1.00;0.00;;;;;2.92;93.01;103353.78;5047421;28;11102;-69
2022/01/21 04:08:11;;;;;;;;;0.00;0.00;;;;;2.85;92.86;103352.38;5046486;28;11119;-69
2022/01/21 04:10:41;;;;;;;;;0.00;0.00;;;;;2.84;92.98;103347.97;5047534;28;12147;-69
2022/01/21 04:13:18;;;;;;;;;0.00;0.00;;;;;2.88;93.18;103341.53;5045739;28;11128;-69
2022/01/21 04:15:50;;;;;;;;;0.00;0.00;;;;;2.84;93.23;103346.16;5030441;28;11415;-71
2022/01/21 04:18:18;;;;;;;;;0.75;0.00;;;;;2.87;93.20;103354.03;5044461;28;11439;-69
2022/01/21 04:20:52;;;;;;;;;0.50;0.00;;;;;2.90;93.29;103359.22;5013744;28;11261;-69
2022/01/21 04:23:22;;;;;;;;;0.00;0.00;;;;;2.92;93.43;103357.34;5030277;28;11033;-71
2022/01/21 04:25:50;;;;;;;;;0.00;0.00;;;;;2.95;93.62;103357.19;5014530;28;11119;-71
2022/01/21 04:28:17;;;;;;;;;0.00;0.00;;;;;2.98;93.65;103356.19;5027347;28;11107;-71
2022/01/21 04:30:45;;;;;;;;;0.75;0.00;;;;;3.01;93.78;103356.88;5030595;28;11044;-72
2022/01/21 04:33:13;;;;;;;;;0.00;0.00;;;;;3.04;94.25;103354.06;5029140;28;11549;-71
2022/01/21 04:35:42;;;;;;;;;0.00;0.00;;;;;3.05;94.29;103362.94;5046688;28;11114;-71
2022/01/21 04:38:12;;;;;;;;;0.00;0.00;;;;;3.03;94.24;103365.69;5018483;28;11032;-71
2022/01/21 04:40:46;;;;;;;;;1.00;0.00;;;;;3.05;94.64;103361.13;5031410;28;11067;-71
2022/01/21 04:48:44;;;;;;;;;1.00;1.00;;;;;3.05;95.10;103345.06;5041150;28;10944;-71
2022/01/21 04:51:21;;;;;;;;;0.25;0.00;;;;;3.05;95.33;103346.88;5047360;28;11103;-71
2022/01/21 04:53:48;;;;;;;;;0.00;0.00;;;;;3.07;95.27;103348.53;5022010;28;11037;-70
2022/01/21 04:56:23;;;;;;;;;0.00;0.00;;;;;3.04;95.31;103343.34;5022307;28;11198;-71
2022/01/21 04:58:53;;;;;;;;;1.00;0.00;;;;;3.08;95.29;103350.28;5028605;28;11125;-70
2022/01/21 05:01:19;;;;;;;;;0.00;0.00;;;;;3.11;95.09;103345.69;5022094;28;10926;-71
2022/01/21 05:03:46;;;;;;;;;0.00;0.00;;;;;3.11;94.93;103351.06;5038510;28;11035;-71
2022/01/21 05:06:13;;;;;;;;;0.00;0.00;;;;;3.09;94.88;103354.69;5030156;28;11085;-71
2022/01/21 05:08:48;;;;;;;;;0.25;0.25;;;;;3.12;95.46;103359.00;5013610;28;10949;-69
2022/01/21 05:11:16;;;;;;;;;0.00;0.00;;;;;3.15;95.56;103358.84;5047252;28;11136;-71
2022/01/21 05:13:53;;;;;;;;;0.00;0.00;;;;;3.20;95.98;103342.53;5037373;28;11042;-71
2022/01/21 05:16:32;;;;;;;;;0.00;0.00;;;;;3.25;95.86;103341.38;5046449;28;11052;-71
2022/01/21 05:19:05;;;;;;;;;0.00;0.00;;;;;3.24;95.58;103339.66;5016450;28;10958;-70
2022/01/21 05:21:54;;;;;;;;;0.50;0.00;;;;;3.19;95.07;103340.81;5028509;28;10895;-71
2022/01/21 05:24:26;;;;;;;;;0.00;0.00;;;;;3.17;94.82;103332.84;5021974;28;11125;-71
2022/01/21 05:26:54;;;;;;;;;0.00;0.00;;;;;3.17;95.06;103334.66;5028249;28;12044;-70
2022/01/21 05:29:26;;;;;;;;;0.00;0.00;;;;;3.15;94.66;103336.56;5028920;28;11225;-69
2022/01/21 05:31:59;;;;;;;;;1.00;0.00;;;;;3.12;94.83;103329.56;5014142;28;10938;-71
2022/01/21 05:34:37;;;;;;;;;0.00;0.00;;;;;3.12;95.06;103329.56;5029368;28;11171;-71
2022/01/21 05:37:36;;;;;;;;;0.00;0.00;;;;;3.08;94.74;103334.22;5013676;28;11720;-70
2022/01/21 05:40:16;;;;;;;;;0.00;0.00;;;;;3.07;94.59;103342.31;5047751;28;11044;-71
2022/01/21 05:43:05;;;;;;;;;0.00;0.00;;;;;3.04;94.55;103347.84;5027570;28;10902;-70
2022/01/21 05:49:04;;;;;;;;;0.00;0.00;;;;;3.00;94.16;103351.63;5041855;28;10930;-70
2022/01/21 05:51:53;;;;;;;;;0.25;0.00;;;;;3.02;94.35;103352.41;5032232;28;11814;-67
2022/01/21 05:54:46;;;;;;;;;0.00;0.00;;;;;2.98;94.31;103345.47;5007987;28;11046;-71
2022/01/21 05:57:35;;;;;;;;;0.00;0.00;;;;;2.95;94.37;103351.81;5044088;28;11100;-72
2022/01/21 06:00:02;;;;;;;;;0.00;0.00;;;;;2.95;94.23;103349.16;5045182;28;10959;-68
2022/01/21 06:02:30;;;;;;;;;0.00;0.00;;;;;2.99;94.55;103352.56;5045531;28;11026;-70
2022/01/21 06:04:58;;;;;;;;;0.00;0.00;;;;;2.98;94.19;103354.38;5028129;28;11869;-71
2022/01/21 06:07:24;;;;;;;;;0.50;0.50;;;;;3.03;94.41;103362.16;5027487;28;11191;-71
2022/01/21 06:09:51;;;;;;;;;0.00;0.00;;;;;3.06;94.73;103365.53;5027826;28;10945;-70
2022/01/21 06:12:17;;;;;;;;;1.00;1.00;;;;;3.14;95.39;103366.94;5045053;28;11090;-71
2022/01/21 06:14:44;;;;;;;;;2.00;0.75;;;;;3.18;95.45;103363.16;5046558;28;11089;-70
2022/01/21 06:17:13;;;;;;;;;0.50;0.50;;;;;3.23;96.05;103350.44;5042813;28;11017;-71
2022/01/21 06:19:40;;;;;;;;;0.00;0.00;;;;;3.25;95.98;103352.09;5042502;28;11016;-69
2022/01/21 06:22:07;;;;;;;;;0.00;0.00;;;;;3.31;96.42;103358.94;5047124;28;10993;-70
2022/01/21 06:24:34;;;;;;;;;0.00;0.00;;;;;3.25;96.37;103352.09;5029284;28;11685;-70
2022/01/21 06:27:03;;;;;;;;;1.00;0.00;;;;;3.30;96.04;103366.09;5046366;28;11153;-70
2022/01/21 06:29:29;;;;;;;;;1.00;0.00;;;;;3.35;96.03;103369.38;5022176;28;11743;-71
2022/01/21 06:31:56;;;;;;;;;0.00;0.00;;;;;3.37;96.00;103364.81;5045732;28;11052;-71
2022/01/21 06:34:23;;;;;;;;;0.00;0.00;;;;;3.38;95.87;103366.53;5044596;28;11265;-71
2022/01/21 06:36:49;;;;;;;;;0.00;0.00;;;;;3.38;96.04;103369.22;5012704;28;11216;-72
2022/01/21 06:39:16;;;;;;;;;0.00;0.00;;;;;3.35;95.55;103365.84;5044876;28;11073;-72
2022/01/21 06:41:44;;;;;;;;;0.00;0.00;;;;;3.31;95.36;103364.28;5044964;28;10971;-73
2022/01/21 06:44:10;;;;;;;;;0.00;0.00;;;;;3.28;95.08;103362.63;5028125;28;11079;-71
2022/01/21 06:46:37;;;;;;;;;0.00;0.00;;;;;3.30;94.88;103367.91;5028739;28;11017;-70
2022/01/21 06:49:03;;;;;;;;;0.00;0.00;;;;;3.29;94.77;103367.03;5043979;28;10905;-72
2022/01/21 06:51:30;;;;;;;;;0.75;0.00;;;;;3.29;94.35;103380.41;5045594;28;11045;-71
2022/01/21 06:53:56;;;;;;;;;1.00;0.00;;;;;3.29;94.03;103368.84;5044023;28;11003;-72
2022/01/21 06:56:23;;;;;;;;;0.00;0.00;;;;;3.23;94.12;103370.03;5043781;28;10989;-70
2022/01/21 06:58:49;;;;;;;;;0.00;0.00;;;;;3.26;94.42;103377.91;5027824;28;11149;-71
2022/01/21 07:01:16;;;;;;;;;0.00;0.00;;;;;3.21;93.90;103379.94;5044320;28;10841;-72
2022/01/21 07:03:43;;;;;;;;;0.00;0.00;;;;;3.16;94.17;103394.50;5044482;28;11108;-71
2022/01/21 07:06:09;;;;;;;;;0.75;0.00;;;;;3.14;94.34;103399.94;5028869;28;11020;-71
2022/01/21 07:08:36;;;;;;;;;0.00;0.00;;;;;3.15;94.50;103387.41;5044982;28;11049;-70
2022/01/21 07:11:02;;;;;;;;;0.00;0.00;;;;;3.15;94.44;103384.75;5046513;28;11008;-71
2022/01/21 07:13:29;;;;;;;;;0.00;0.00;;;;;3.16;94.34;103389.16;5045836;28;11018;-72
2022/01/21 07:15:55;;;;;;;;;0.00;0.00;;;;;3.16;94.28;103386.47;5044002;28;11084;-74
2022/01/21 07:18:22;;;;;;;;;1.00;1.00;;;;;3.21;94.24;103384.41;5026608;28;11198;-73
2022/01/21 07:20:48;;;;;;;;;0.00;0.00;;;;;3.21;93.96;103387.09;5046244;28;11310;-71
2022/01/21 07:23:15;;;;;;;;;0.50;0.00;;;;;3.21;94.05;103374.56;5049849;28;12061;-74
2022/01/21 07:25:41;;;;;;;;;0.00;0.00;;;;;3.22;94.23;103384.38;5048950;28;11653;-73
2022/01/21 07:28:09;;;;;;;;;0.00;0.00;;;;;3.20;94.05;103375.53;5021041;28;11044;-72
2022/01/21 07:30:35;;;;;;;;;0.00;0.00;;;;;3.18;94.12;103371.19;5048231;28;10981;-73
2022/01/21 07:33:02;;;;;;;;;0.00;0.00;;;;;3.19;94.29;103378.28;5030879;28;10888;-69
2022/01/21 07:35:28;;;;;;;;;0.00;0.00;;;;;3.18;94.04;103384.56;5048640;28;11050;-73
2022/01/21 07:38:11;;;;;;;;;0.00;0.00;;;;;3.19;94.54;103375.59;5032526;28;10980;-70
2022/01/21 07:40:38;;;;;;;;;0.00;0.00;;;;;3.20;94.67;103370.16;5048780;28;11115;-72
2022/01/21 07:43:06;;;;;;;;;0.00;0.00;;;;;3.56;96.23;103366.53;5031287;28;11099;-70
2022/01/21 07:45:33;;;;;;;;;0.25;0.00;;;;;3.36;94.37;103376.47;5049302;28;10962;-71
2022/01/21 07:48:00;;;;;;;;;0.00;0.00;;;;;3.28;94.22;103367.13;5045934;28;11831;-72
2022/01/21 07:50:31;;;;;;;;;0.50;0.00;;;;;3.24;94.37;103371.78;5031106;28;11086;-72
2022/01/21 07:52:57;;;;;;;;;0.00;0.00;;;;;3.21;94.48;103363.88;5013395;28;10974;-70
2022/01/21 07:55:24;;;;;;;;;0.00;0.00;;;;;3.25;94.49;103367.28;5049302;28;11056;-71
2022/01/21 07:57:50;;;;;;;;;0.00;0.00;;;;;3.24;94.76;103377.13;5047761;28;10921;-71
2022/01/21 08:00:17;;;;;;;;;0.50;0.00;;;;;3.22;94.27;103386.16;5029657;28;10888;-70
2022/01/21 08:02:45;;;;;;;;;0.50;0.00;;;;;3.19;94.40;103389.84;5048053;28;11656;-72
2022/01/21 08:05:12;;;;;;;;;1.75;0.75;;;;;3.20;94.42;103394.25;5015245;28;12090;-71
2022/01/21 08:07:38;;;;;;;;;0.00;0.00;;;;;3.44;95.12;103404.66;5046915;28;11153;-72
2022/01/21 08:10:05;;;;;;;;;1.00;1.00;;;;;3.38;94.49;103400.50;5047383;28;11117;-71
2022/01/21 08:12:32;;;;;;;;;1.00;0.25;;;;;3.41;94.71;103403.00;5029815;28;11085;-70
2022/01/21 08:14:58;;;;;;;;;0.50;0.50;;;;;3.47;94.79;103399.13;5048552;28;10921;-71
2022/01/21 08:17:29;;;;;;;;;1.00;1.00;;;;;3.50;94.62;103407.03;5013742;28;10963;-72
2022/01/21 08:19:57;;;;;;;;;0.00;0.00;;;;;3.54;94.97;103404.13;5012848;28;11129;-71
2022/01/21 08:22:25;;;;;;;;;0.75;0.75;;;;;3.56;94.67;103410.25;5048086;28;10933;-71
2022/01/21 08:24:51;;;;;;;;;1.75;0.75;;;;;3.60;95.12;103410.94;5029173;28;11066;-70
2022/01/21 08:27:18;;;;;;;;;4.00;1.00;;;;;3.67;94.81;103398.97;5028115;28;10813;-70
2022/01/21 08:29:44;;;;;;;;;4.00;1.00;;;;;3.71;94.80;103382.63;5012690;28;10764;-71
2022/01/21 08:32:12;;;;;;;;;0.75;0.75;;;;;3.74;94.71;103386.13;5046671;28;11191;-70
2022/01/21 08:34:39;;;;;;;;;3.00;1.00;;;;;3.83;94.90;103394.53;5046472;28;11588;-70
2022/01/21 08:37:06;;;;;;;;;1.00;1.00;;;;;3.90;94.98;103384.34;5046307;28;10720;-71
2022/01/21 08:39:32;;;;;;;;;2.00;2.00;;;;;3.86;94.90;103377.41;5045440;28;10832;-71
2022/01/21 08:41:59;;;;;;;;;1.00;1.00;;;;;3.89;95.11;103378.09;5017099;28;11019;-70
2022/01/21 08:44:26;;;;;;;;;1.00;1.00;;;;;4.04;95.71;103383.59;5044521;28;10876;-71
2022/01/21 08:46:52;;;;;;;;;2.00;2.00;;;;;4.14;95.44;103376.75;5024774;28;11106;-71
2022/01/21 08:49:37;;;;;;;;;2.00;2.00;;;;;4.26;95.38;103382.34;5047338;28;11057;-71
2022/01/21 08:52:04;;;;;;;;;1.00;1.00;;;;;4.37;95.19;103381.72;5030525;28;10929;-70
2022/01/21 08:54:30;;;;;;;;;1.50;0.00;;;;;4.48;95.18;103389.19;5043599;28;10814;-71
2022/01/21 08:56:57;;;;;;;;;0.00;0.00;;;;;4.58;94.77;103379.63;5025780;28;10818;-72
2022/01/21 08:59:26;;;;;;;;;0.25;0.00;;;;;4.72;94.64;103377.03;5047458;28;10949;-71
2022/01/21 09:01:54;;;;;;;;;1.00;1.00;;;;;4.74;94.33;103377.81;5047302;28;10954;-69
2022/01/21 09:04:21;;;;;;;;;4.00;1.00;;;;;4.66;94.08;103380.06;5020679;28;10791;-69
2022/01/21 09:06:48;;;;;;;;;1.00;1.00;;;;;4.71;94.52;103391.41;5027557;28;10834;-71
2022/01/21 09:09:15;;;;;;;;;1.00;1.00;;;;;4.81;94.77;103375.63;5044121;28;10817;-72
2022/01/21 09:11:41;;;;;;;;;5.50;4.50;;;;;4.95;94.64;103378.34;5021016;28;10864;-71
2022/01/21 09:14:08;;;;;;;;;0.75;0.75;;;;;5.05;94.21;103382.25;5044503;28;10944;-71
2022/01/21 09:16:34;;;;;;;;;1.00;1.00;;;;;5.00;94.81;103384.34;5044776;28;10758;-71
2022/01/21 09:19:02;;;;;;;;;0.00;0.00;;;;;4.95;95.79;103383.72;5030389;28;10801;-71
2022/01/21 09:21:33;;;;;;;;;4.00;2.00;;;;;4.93;96.67;103385.63;5038642;28;10904;-71
2022/01/21 09:24:00;;;;;;;;;0.00;0.00;;;;;4.92;97.03;103383.91;5024949;28;10734;-71
2022/01/21 09:26:27;;;;;;;;;1.50;1.00;;;;;4.92;97.21;103384.78;5043976;28;10803;-72
2022/01/21 09:28:56;;;;;;;;;0.25;0.25;;;;;4.88;97.85;103390.41;5044784;28;11336;-71
2022/01/21 09:31:23;;;;;;;;;0.50;0.00;;;;;4.94;98.24;103398.09;5044596;28;11354;-72
2022/01/21 09:34:10;;;;;;;;;1.00;1.00;;;;;5.14;98.21;103394.25;5043085;28;10788;-71
2022/01/21 09:36:37;;;;;;;;;0.50;0.50;;;;;5.56;98.02;103388.13;5022919;28;10654;-70
2022/01/21 09:39:05;;;;;;;;;0.25;0.25;;;;;5.52;96.93;103390.16;5025710;28;10791;-73
2022/01/21 09:41:32;;;;;;;;;2.00;1.00;;;;;5.40;96.75;103382.81;5043377;28;10963;-71
2022/01/21 09:44:02;;;;;;;;;3.25;1.00;;;;;5.40;96.93;103390.00;5041782;28;10764;-71
2022/01/21 09:46:36;;;;;;;;;0.00;0.00;;;;;5.39;97.18;103381.09;5021853;28;10743;-73
2022/01/21 09:49:09;;;;;;;;;2.50;1.00;;;;;5.37;96.88;103398.25;5043299;28;10662;-73
2022/01/21 09:51:36;;;;;;;;;0.00;0.00;;;;;5.39;96.74;103396.34;5026238;28;10518;-72
2022/01/21 09:54:07;;;;;;;;;1.25;0.00;;;;;5.44;96.43;103391.56;5042816;28;10528;-72
2022/01/21 09:56:38;;;;;;;;;1.00;1.00;;;;;5.60;96.34;103395.03;5060219;28;10601;-70
2022/01/21 09:59:05;;;;;;;;;0.00;0.00;;;;;5.77;95.86;103404.78;5044561;28;10502;-67
2022/01/21 10:01:33;;;;;;;;;1.00;1.00;;;;;5.84;95.32;103406.13;5045454;28;10496;-72
2022/01/21 10:04:01;;;;;;;;;0.50;0.00;;;;;5.96;95.07;103399.16;5045265;28;10518;-72
2022/01/21 10:06:28;;;;;;;;;0.00;0.00;;;;;6.08;94.44;103410.00;5041081;28;10605;-72
2022/01/21 10:08:55;;;;;;;;;0.50;0.50;;;;;6.05;93.72;103410.19;5045691;28;10502;-72
2022/01/21 10:11:24;;;;;;;;;0.00;0.00;;;;;6.00;93.00;103409.63;5046614;28;10604;-72
2022/01/21 10:13:52;;;;;;;;;1.00;0.00;;;;;5.92;93.21;103401.16;5042199;28;10539;-72
2022/01/21 10:16:18;;;;;;;;;0.00;0.00;;;;;5.96;93.66;103391.94;5045482;28;10564;-72
2022/01/21 10:19:03;;;;;;;;;2.25;1.00;;;;;6.05;94.15;103396.75;5043295;28;10596;-71
2022/01/21 10:21:32;;;;;;;;;2.00;0.75;;;;;6.07;93.84;103400.19;5045237;28;10664;-72
2022/01/21 10:24:12;;;;;;;;;3.00;0.50;;;;;6.06;93.84;103406.53;5046355;28;10535;-71
2022/01/21 10:26:53;;;;;;;;;1.00;1.00;;;;;6.11;93.77;103406.25;5027821;28;10694;-71
2022/01/21 10:29:20;;;;;;;;;1.00;0.50;;;;;6.11;93.72;103395.47;5011613;28;10558;-71
2022/01/21 10:31:59;;;;;;;;;0.00;0.00;;;;;6.09;93.47;103389.34;5043815;28;10615;-71
2022/01/21 10:34:41;;;;;;;;;0.00;0.00;;;;;6.06;92.99;103385.03;5045781;28;10516;-70
2022/01/21 10:37:30;;;;;;;;;0.00;0.00;;;;;6.07;92.71;103392.13;5045806;28;10435;-70
2022/01/21 10:40:07;;;;;;;;;1.00;0.00;;;;;6.07;92.91;103392.13;5060891;28;10499;-71
2022/01/21 10:42:34;;;;;;;;;0.00;0.00;;;;;6.02;93.14;103394.25;5058255;22;10663;-70
2022/01/21 10:45:03;;;;;;;;;0.25;0.25;;;;;5.98;92.69;103386.47;5005311;28;10478;-71
2022/01/21 10:47:33;;;;;;;;;0.00;0.00;;;;;6.00;93.17;103398.00;5003019;28;10526;-70
2022/01/21 10:50:12;;;;;;;;;1.25;1.25;;;;;6.00;92.49;103390.78;5004224;28;10403;-71
2022/01/21 10:52:43;;;;;;;;;1.25;1.25;;;;;6.01;92.06;103388.97;5032636;28;10631;-71
2022/01/21 10:55:33;;;;;;;;;0.00;0.00;;;;;6.04;91.75;103389.63;5025691;28;10565;-71
2022/01/21 10:58:11;;;;;;;;;2.25;0.25;;;;;6.15;91.73;103405.06;5029062;28;10432;-71
2022/01/21 11:01:00;;;;;;;;;0.00;0.00;;;;;6.27;91.29;103401.63;5027812;28;10365;-71
2022/01/21 11:03:29;;;;;;;;;0.00;0.00;;;;;6.33;90.64;103401.22;5027677;28;10435;-70
2022/01/21 11:06:14;;;;;;;;;1.00;0.00;;;;;6.39;89.74;103405.34;5028611;28;10627;-70
2022/01/21 11:08:41;;;;;;;;;1.00;1.00;;;;;6.65;89.63;103403.66;5022337;28;10469;-70
2022/01/21 11:11:07;;;;;;;;;0.00;0.00;;;;;6.84;88.33;103401.47;5028540;28;10530;-69
2022/01/21 11:13:39;;;;;;;;;2.00;1.00;;;;;6.96;87.49;103406.06;5025914;28;10482;-71
2022/01/21 11:16:09;;;;;;;;;0.25;0.25;;;;;7.01;87.24;103403.91;5028594;28;10564;-71
2022/01/21 11:19:06;;;;;;;;;1.75;0.00;;;;;6.86;86.53;103401.38;5025139;28;10285;-71
2022/01/21 11:21:40;;;;;;;;;2.75;0.00;;;;;6.82;87.20;103408.78;5044026;28;10518;-69
2022/01/21 11:24:08;;;;;;;;;1.75;1.75;;;;;6.66;87.70;103400.84;5027501;28;10460;-71
2022/01/21 11:26:35;;;;;;;;;0.00;0.00;;;;;6.53;87.88;103404.47;5027182;28;10390;-70
2022/01/21 11:29:04;;;;;;;;;1.25;0.25;;;;;6.50;88.96;103396.59;5027757;28;10633;-70
2022/01/21 11:31:31;;;;;;;;;1.00;0.75;;;;;6.37;90.20;103386.59;5029554;28;10695;-71
2022/01/21 11:34:09;;;;;;;;;0.00;0.00;;;;;6.25;90.59;103373.09;5029579;28;10465;-71
2022/01/21 11:36:35;;;;;;;;;2.00;0.25;;;;;6.19;90.63;103368.94;5027912;28;10347;-70
2022/01/21 11:39:04;;;;;;;;;0.50;0.50;;;;;6.15;90.78;103381.75;5025908;28;11087;-71
2022/01/21 11:41:31;;;;;;;;;1.25;1.25;;;;;6.27;90.99;103390.88;5020458;28;10497;-70
2022/01/21 11:44:01;;;;;;;;;3.00;1.00;;;;;6.38;90.47;103379.41;5028056;28;10545;-70
2022/01/21 11:49:09;;;;;;;;;0.75;0.75;;;;;6.48;89.82;103385.94;5025026;28;10552;-71
2022/01/21 11:51:38;;;;;;;;;2.75;1.75;;;;;6.44;89.60;103376.31;5027302;28;10487;-70
2022/01/21 11:54:10;;;;;;;;;3.25;2.00;;;;;6.42;89.46;103359.41;5030703;28;10285;-70
2022/01/21 11:56:55;;;;;;;;;4.00;1.00;;;;;6.47;89.97;103365.38;5027601;28;10354;-71
2022/01/21 11:59:27;;;;;;;;;1.00;0.00;;;;;6.48;89.77;103381.41;5031576;28;10434;-70
2022/01/21 12:01:53;;;;;;;;;1.50;1.50;;;;;6.45;89.42;103372.69;5026149;28;10446;-70
2022/01/21 12:04:29;;;;;;;;;1.00;1.00;;;;;6.54;89.75;103381.97;5027372;28;10401;-70
2022/01/21 12:06:58;;;;;;;;;1.75;0.75;;;;;6.64;89.78;103370.47;5025772;28;10401;-70
2022/01/21 12:09:54;;;;;;;;;0.50;0.50;;;;;6.65;88.76;103371.34;5026727;28;10387;-70
2022/01/21 12:12:21;;;;;;;;;2.00;2.00;;;;;6.65;88.50;103369.53;5026229;28;10414;-69
2022/01/21 12:14:53;;;;;;;;;0.50;0.50;;;;;6.69;88.31;103368.38;5031563;28;10385;-67
2022/01/21 12:17:40;;;;;;;;;3.00;1.00;;;;;6.64;87.57;103375.00;5031241;28;10374;-71
2022/01/21 12:20:08;;;;;;;;;1.00;1.00;;;;;6.60;87.38;103376.19;5029825;28;10314;-71
2022/01/21 12:22:34;;;;;;;;;2.00;1.25;;;;;6.56;86.59;103370.13;5024161;28;10246;-69
2022/01/21 12:25:12;;;;;;;;;2.00;0.00;;;;;6.60;86.88;103365.41;5030225;28;11047;-70
2022/01/21 12:28:16;;;;;;;;;1.75;1.75;;;;;6.64;86.71;103362.41;5030229;28;10214;-71
2022/01/21 12:30:53;;;;;;;;;2.50;2.50;;;;;6.61;86.28;103365.31;5030931;28;10304;-70
2022/01/21 12:34:08;;;;;;;;;1.50;0.00;;;;;6.58;86.37;103365.50;5040449;28;10375;-71
2022/01/21 12:36:51;;;;;;;;;1.00;1.00;;;;;6.58;86.78;103362.81;4982200;28;10256;-69
2022/01/21 12:39:47;;;;;;;;;0.00;0.00;;;;;6.64;86.83;103370.47;5021786;28;10230;-70
2022/01/21 12:42:47;;;;;;;;;0.50;0.00;;;;;6.39;85.24;103362.28;5026312;28;10387;-71